sensor_id;sensor_type;location;lat;lon;timestamp;pressure;altitude;pressure_sealevel;temperature;humidity
76728;BME280;65652;53.132;18.026;2022-12-18T00:01:57;102720.71;;;-3.41;79.80
76728;BME280;65652;53.132;18.026;2022-12-18T00:04:25;102720.37;;;-3.45;79.96
76728;BME280;65652;53.132;18.026;2022-12-18T00:06:52;102722.77;;;-3.48;79.89
76728;BME280;65652;53.132;18.026;2022-12-18T00:09:18;102727.42;;;-3.53;79.78
76728;BME280;65652;53.132;18.026;2022-12-18T00:11:45;102730.34;;;-3.57;80.08
76728;BME280;65652;53.132;18.026;2022-12-18T00:14:12;102735.69;;;-3.57;80.08
76728;BME280;65652;53.132;18.026;2022-12-18T00:16:39;102738.80;;;-3.54;80.32
76728;BME280;65652;53.132;18.026;2022-12-18T00:19:06;102739.85;;;-3.52;80.20
76728;BME280;65652;53.132;18.026;2022-12-18T00:21:33;102738.29;;;-3.53;80.24
76728;BME280;65652;53.132;18.026;2022-12-18T00:24:00;102736.90;;;-3.53;80.55
76728;BME280;65652;53.132;18.026;2022-12-18T00:26:28;102741.23;;;-3.52;80.31
76728;BME280;65652;53.132;18.026;2022-12-18T00:29:22;102739.86;;;-3.51;80.37
76728;BME280;65652;53.132;18.026;2022-12-18T00:31:48;102745.20;;;-3.51;80.48
76728;BME280;65652;53.132;18.026;2022-12-18T00:34:14;102748.46;;;-3.57;80.42
76728;BME280;65652;53.132;18.026;2022-12-18T00:36:41;102752.08;;;-3.59;80.44
76728;BME280;65652;53.132;18.026;2022-12-18T00:39:07;102757.61;;;-3.58;80.62
76728;BME280;65652;53.132;18.026;2022-12-18T00:41:34;102759.69;;;-3.56;80.51
76728;BME280;65652;53.132;18.026;2022-12-18T00:44:19;102761.59;;;-3.55;80.74
76728;BME280;65652;53.132;18.026;2022-12-18T00:46:47;102767.81;;;-3.51;80.65
76728;BME280;65652;53.132;18.026;2022-12-18T00:49:16;102768.71;;;-3.47;80.82
76728;BME280;65652;53.132;18.026;2022-12-18T00:51:42;102768.36;;;-3.45;80.44
76728;BME280;65652;53.132;18.026;2022-12-18T00:54:09;102774.58;;;-3.42;80.29
76728;BME280;65652;53.132;18.026;2022-12-18T00:56:37;102777.35;;;-3.42;80.46
76728;BME280;65652;53.132;18.026;2022-12-18T00:59:04;102776.15;;;-3.42;80.52
76728;BME280;65652;53.132;18.026;2022-12-18T01:01:31;102775.95;;;-3.46;80.49
76728;BME280;65652;53.132;18.026;2022-12-18T01:04:00;102777.85;;;-3.47;80.45
76728;BME280;65652;53.132;18.026;2022-12-18T01:06:27;102784.94;;;-3.46;80.44
76728;BME280;65652;53.132;18.026;2022-12-18T01:08:53;102781.66;;;-3.44;80.41
76728;BME280;65652;53.132;18.026;2022-12-18T01:11:20;102782.52;;;-3.43;80.50
76728;BME280;65652;53.132;18.026;2022-12-18T01:13:47;102791.15;;;-3.45;80.33
76728;BME280;65652;53.132;18.026;2022-12-18T01:16:16;102789.92;;;-3.47;80.30
76728;BME280;65652;53.132;18.026;2022-12-18T01:18:42;102794.94;;;-3.49;80.08
76728;BME280;65652;53.132;18.026;2022-12-18T01:21:11;102797.02;;;-3.48;80.29
76728;BME280;65652;53.132;18.026;2022-12-18T01:23:38;102798.91;;;-3.48;80.27
76728;BME280;65652;53.132;18.026;2022-12-18T01:26:09;102803.58;;;-3.48;80.28
76728;BME280;65652;53.132;18.026;2022-12-18T01:28:37;102811.16;;;-3.48;80.34
76728;BME280;65652;53.132;18.026;2022-12-18T01:31:19;102814.11;;;-3.47;80.29
76728;BME280;65652;53.132;18.026;2022-12-18T01:33:46;102819.13;;;-3.44;80.15
76728;BME280;65652;53.132;18.026;2022-12-18T01:36:30;102813.96;;;-3.43;80.07
76728;BME280;65652;53.132;18.026;2022-12-18T01:38:59;102808.08;;;-3.45;80.48
76728;BME280;65652;53.132;18.026;2022-12-18T01:41:29;102812.56;;;-3.45;80.22
76728;BME280;65652;53.132;18.026;2022-12-18T01:47:43;102820.70;;;-3.40;80.37
76728;BME280;65652;53.132;18.026;2022-12-18T01:52:46;102822.99;;;-3.30;80.26
76728;BME280;65652;53.132;18.026;2022-12-18T01:55:16;102816.60;;;-3.27;80.15
76728;BME280;65652;53.132;18.026;2022-12-18T01:57:44;102815.58;;;-3.25;80.17
76728;BME280;65652;53.132;18.026;2022-12-18T02:00:14;102818.17;;;-3.27;80.04
76728;BME280;65652;53.132;18.026;2022-12-18T02:02:43;102825.23;;;-3.31;80.11
76728;BME280;65652;53.132;18.026;2022-12-18T02:05:10;102827.63;;;-3.36;80.29
76728;BME280;65652;53.132;18.026;2022-12-18T02:10:52;102834.86;;;-3.40;80.14
76728;BME280;65652;53.132;18.026;2022-12-18T02:13:36;102837.09;;;-3.43;80.00
76728;BME280;65652;53.132;18.026;2022-12-18T02:19:01;102837.45;;;-3.43;80.13
76728;BME280;65652;53.132;18.026;2022-12-18T02:27:02;102849.38;;;-3.39;80.02
76728;BME280;65652;53.132;18.026;2022-12-18T02:29:52;102850.27;;;-3.34;79.79
76728;BME280;65652;53.132;18.026;2022-12-18T02:32:24;102853.73;;;-3.31;79.93
76728;BME280;65652;53.132;18.026;2022-12-18T02:34:52;102860.81;;;-3.30;79.77
76728;BME280;65652;53.132;18.026;2022-12-18T02:37:22;102868.39;;;-3.34;79.89
76728;BME280;65652;53.132;18.026;2022-12-18T02:39:51;102868.36;;;-3.40;79.53
76728;BME280;65652;53.132;18.026;2022-12-18T02:42:20;102872.82;;;-3.48;79.88
76728;BME280;65652;53.132;18.026;2022-12-18T02:44:49;102864.85;;;-3.52;79.98
76728;BME280;65652;53.132;18.026;2022-12-18T02:47:25;102865.02;;;-3.54;80.03
76728;BME280;65652;53.132;18.026;2022-12-18T02:58:09;102870.08;;;-3.44;80.07
76728;BME280;65652;53.132;18.026;2022-12-18T03:00:48;102871.63;;;-3.43;79.82
76728;BME280;65652;53.132;18.026;2022-12-18T03:03:25;102869.02;;;-3.47;79.98
76728;BME280;65652;53.132;18.026;2022-12-18T03:06:12;102869.52;;;-3.50;80.10
76728;BME280;65652;53.132;18.026;2022-12-18T03:08:47;102873.29;;;-3.53;80.01
76728;BME280;65652;53.132;18.026;2022-12-18T03:11:15;102879.49;;;-3.58;80.28
76728;BME280;65652;53.132;18.026;2022-12-18T03:14:03;102885.19;;;-3.58;80.30
76728;BME280;65652;53.132;18.026;2022-12-18T03:16:33;102888.67;;;-3.52;80.17
76728;BME280;65652;53.132;18.026;2022-12-18T03:19:05;102888.35;;;-3.48;80.03
76728;BME280;65652;53.132;18.026;2022-12-18T03:21:39;102891.83;;;-3.44;80.04
76728;BME280;65652;53.132;18.026;2022-12-18T03:24:08;102888.92;;;-3.39;79.97
76728;BME280;65652;53.132;18.026;2022-12-18T03:26:38;102888.07;;;-3.38;79.71
76728;BME280;65652;53.132;18.026;2022-12-18T03:29:16;102885.83;;;-3.38;79.85
76728;BME280;65652;53.132;18.026;2022-12-18T03:31:49;102893.92;;;-3.41;79.79
76728;BME280;65652;53.132;18.026;2022-12-18T03:34:23;102902.04;;;-3.41;79.79
76728;BME280;65652;53.132;18.026;2022-12-18T03:36:53;102902.55;;;-3.42;79.75
76728;BME280;65652;53.132;18.026;2022-12-18T03:39:19;102904.61;;;-3.43;79.80
76728;BME280;65652;53.132;18.026;2022-12-18T03:47:41;102914.45;;;-3.43;79.95
76728;BME280;65652;53.132;18.026;2022-12-18T03:50:21;102917.23;;;-3.41;79.74
76728;BME280;65652;53.132;18.026;2022-12-18T03:52:59;102922.23;;;-3.42;79.68
76728;BME280;65652;53.132;18.026;2022-12-18T03:55:30;102924.48;;;-3.43;79.77
76728;BME280;65652;53.132;18.026;2022-12-18T03:58:01;102925.50;;;-3.43;79.61
76728;BME280;65652;53.132;18.026;2022-12-18T04:00:36;102927.92;;;-3.43;79.64
76728;BME280;65652;53.132;18.026;2022-12-18T04:03:07;102926.35;;;-3.45;79.87
76728;BME280;65652;53.132;18.026;2022-12-18T04:05:42;102924.95;;;-3.48;79.71
76728;BME280;65652;53.132;18.026;2022-12-18T04:08:09;102926.65;;;-3.52;79.71
76728;BME280;65652;53.132;18.026;2022-12-18T04:10:38;102921.81;;;-3.54;79.72
76728;BME280;65652;53.132;18.026;2022-12-18T04:13:04;102921.46;;;-3.53;79.77
76728;BME280;65652;53.132;18.026;2022-12-18T04:15:34;102923.73;;;-3.52;79.87
76728;BME280;65652;53.132;18.026;2022-12-18T04:18:02;102926.14;;;-3.51;79.90
76728;BME280;65652;53.132;18.026;2022-12-18T04:20:34;102930.28;;;-3.52;79.67
76728;BME280;65652;53.132;18.026;2022-12-18T04:23:00;102932.01;;;-3.52;79.90
76728;BME280;65652;53.132;18.026;2022-12-18T04:25:27;102932.71;;;-3.51;79.63
76728;BME280;65652;53.132;18.026;2022-12-18T04:28:03;102932.00;;;-3.52;79.67
76728;BME280;65652;53.132;18.026;2022-12-18T04:30:30;102930.27;;;-3.54;79.78
76728;BME280;65652;53.132;18.026;2022-12-18T04:32:56;102941.84;;;-3.55;79.61
76728;BME280;65652;53.132;18.026;2022-12-18T04:35:23;102942.16;;;-3.56;79.42
76728;BME280;65652;53.132;18.026;2022-12-18T04:37:50;102939.06;;;-3.55;79.54
76728;BME280;65652;53.132;18.026;2022-12-18T04:40:16;102943.77;;;-3.51;79.74
76728;BME280;65652;53.132;18.026;2022-12-18T04:42:43;102944.12;;;-3.49;79.60
76728;BME280;65652;53.132;18.026;2022-12-18T04:45:13;102947.58;;;-3.47;79.56
76728;BME280;65652;53.132;18.026;2022-12-18T04:47:39;102948.11;;;-3.46;79.57
76728;BME280;65652;53.132;18.026;2022-12-18T04:50:05;102951.39;;;-3.45;79.51
76728;BME280;65652;53.132;18.026;2022-12-18T04:52:32;102954.69;;;-3.42;79.47
76728;BME280;65652;53.132;18.026;2022-12-18T04:54:58;102955.05;;;-3.41;79.46
76728;BME280;65652;53.132;18.026;2022-12-18T04:57:24;102955.23;;;-3.42;79.47
76728;BME280;65652;53.132;18.026;2022-12-18T04:59:50;102959.69;;;-3.43;79.37
76728;BME280;65652;53.132;18.026;2022-12-18T05:02:16;102967.45;;;-3.47;79.45
76728;BME280;65652;53.132;18.026;2022-12-18T05:04:43;102967.41;;;-3.51;79.38
76728;BME280;65652;53.132;18.026;2022-12-18T05:07:09;102969.98;;;-3.53;79.61
76728;BME280;65652;53.132;18.026;2022-12-18T05:09:35;102970.17;;;-3.51;79.51
76728;BME280;65652;53.132;18.026;2022-12-18T05:12:01;102973.46;;;-3.51;79.19
76728;BME280;65652;53.132;18.026;2022-12-18T05:14:27;102971.89;;;-3.52;79.38
76728;BME280;65652;53.132;18.026;2022-12-18T05:16:55;102972.25;;;-3.51;79.44
76728;BME280;65652;53.132;18.026;2022-12-18T05:19:21;102979.00;;;-3.48;79.40
76728;BME280;65652;53.132;18.026;2022-12-18T05:21:47;102987.98;;;-3.47;79.56
76728;BME280;65652;53.132;18.026;2022-12-18T05:24:13;102994.36;;;-3.49;79.58
76728;BME280;65652;53.132;18.026;2022-12-18T05:26:40;103001.08;;;-3.52;79.41
76728;BME280;65652;53.132;18.026;2022-12-18T05:29:06;103002.26;;;-3.56;79.43
76728;BME280;65652;53.132;18.026;2022-12-18T05:31:32;103009.98;;;-3.61;79.20
76728;BME280;65652;53.132;18.026;2022-12-18T05:33:58;103014.42;;;-3.67;79.30
76728;BME280;65652;53.132;18.026;2022-12-18T05:36:24;103018.84;;;-3.75;79.22
76728;BME280;65652;53.132;18.026;2022-12-18T05:38:50;103025.17;;;-3.81;79.26
76728;BME280;65652;53.132;18.026;2022-12-18T05:41:17;103025.99;;;-3.86;79.46
76728;BME280;65652;53.132;18.026;2022-12-18T05:43:43;103029.91;;;-3.89;79.43
76728;BME280;65652;53.132;18.026;2022-12-18T05:46:14;103028.14;;;-3.95;79.55
76728;BME280;65652;53.132;18.026;2022-12-18T05:48:42;103032.92;;;-4.00;79.38
76728;BME280;65652;53.132;18.026;2022-12-18T05:51:13;103031.84;;;-4.05;79.11
76728;BME280;65652;53.132;18.026;2022-12-18T05:53:41;103036.29;;;-4.08;79.42
76728;BME280;65652;53.132;18.026;2022-12-18T05:56:12;103039.52;;;-4.12;79.13
76728;BME280;65652;53.132;18.026;2022-12-18T05:58:38;103047.38;;;-4.19;78.92
76728;BME280;65652;53.132;18.026;2022-12-18T06:01:13;103044.86;;;-4.28;79.21
76728;BME280;65652;53.132;18.026;2022-12-18T06:03:40;103049.23;;;-4.37;79.16
76728;BME280;65652;53.132;18.026;2022-12-18T06:06:17;103050.36;;;-4.43;79.10
76728;BME280;65652;53.132;18.026;2022-12-18T06:08:44;103056.48;;;-4.50;79.22
76728;BME280;65652;53.132;18.026;2022-12-18T06:11:11;103060.08;;;-4.53;79.06
76728;BME280;65652;53.132;18.026;2022-12-18T06:13:38;103063.13;;;-4.57;79.50
76728;BME280;65652;53.132;18.026;2022-12-18T06:16:05;103062.90;;;-4.61;79.34
76728;BME280;65652;53.132;18.026;2022-12-18T06:18:32;103063.36;;;-4.65;79.17
76728;BME280;65652;53.132;18.026;2022-12-18T06:20:59;103070.88;;;-4.70;79.26
76728;BME280;65652;53.132;18.026;2022-12-18T06:23:25;103073.39;;;-4.75;79.28
76728;BME280;65652;53.132;18.026;2022-12-18T06:25:52;103083.79;;;-4.83;79.72
76728;BME280;65652;53.132;18.026;2022-12-18T06:28:18;103083.34;;;-4.90;79.44
76728;BME280;65652;53.132;18.026;2022-12-18T06:30:45;103088.10;;;-4.94;79.32
76728;BME280;65652;53.132;18.026;2022-12-18T06:33:12;103092.00;;;-4.99;79.90
76728;BME280;65652;53.132;18.026;2022-12-18T06:35:38;103092.83;;;-5.01;79.67
76728;BME280;65652;53.132;18.026;2022-12-18T06:38:05;103093.98;;;-5.03;79.90
76728;BME280;65652;53.132;18.026;2022-12-18T06:40:31;103103.66;;;-5.02;80.06
76728;BME280;65652;53.132;18.026;2022-12-18T06:42:57;103102.48;;;-5.01;79.95
76728;BME280;65652;53.132;18.026;2022-12-18T06:45:23;103102.84;;;-4.99;79.84
76728;BME280;65652;53.132;18.026;2022-12-18T06:47:50;103105.10;;;-4.98;79.70
76728;BME280;65652;53.132;18.026;2022-12-18T06:50:17;103115.95;;;-4.98;79.61
76728;BME280;65652;53.132;18.026;2022-12-18T06:52:43;103118.84;;;-5.01;79.72
76728;BME280;65652;53.132;18.026;2022-12-18T06:55:10;103125.14;;;-5.05;79.36
76728;BME280;65652;53.132;18.026;2022-12-18T06:57:37;103131.77;;;-5.11;79.64
76728;BME280;65652;53.132;18.026;2022-12-18T07:00:05;103134.91;;;-5.19;79.57
76728;BME280;65652;53.132;18.026;2022-12-18T07:02:32;103138.40;;;-5.26;79.95
76728;BME280;65652;53.132;18.026;2022-12-18T07:04:58;103140.03;;;-5.32;79.64
76728;BME280;65652;53.132;18.026;2022-12-18T07:07:24;103148.42;;;-5.34;80.01
76728;BME280;65652;53.132;18.026;2022-12-18T07:09:51;103154.79;;;-5.34;79.48
76728;BME280;65652;53.132;18.026;2022-12-18T07:12:17;103157.05;;;-5.32;80.16
76728;BME280;65652;53.132;18.026;2022-12-18T07:14:43;103157.44;;;-5.31;80.13
76728;BME280;65652;53.132;18.026;2022-12-18T07:17:10;103160.57;;;-5.28;80.22
76728;BME280;65652;53.132;18.026;2022-12-18T07:19:36;103161.07;;;-5.29;79.62
76728;BME280;65652;53.132;18.026;2022-12-18T07:22:02;103164.81;;;-5.32;79.98
76728;BME280;65652;53.132;18.026;2022-12-18T07:24:28;103170.27;;;-5.34;80.03
76728;BME280;65652;53.132;18.026;2022-12-18T07:26:54;103170.88;;;-5.39;80.10
76728;BME280;65652;53.132;18.026;2022-12-18T07:29:21;103167.83;;;-5.46;79.79
76728;BME280;65652;53.132;18.026;2022-12-18T07:31:47;103170.95;;;-5.54;80.30
76728;BME280;65652;53.132;18.026;2022-12-18T07:34:14;103175.73;;;-5.65;80.10
76728;BME280;65652;53.132;18.026;2022-12-18T07:36:41;103183.56;;;-5.69;79.95
76728;BME280;65652;53.132;18.026;2022-12-18T07:39:07;103190.77;;;-5.70;80.04
76728;BME280;65652;53.132;18.026;2022-12-18T07:41:34;103194.16;;;-5.73;80.11
76728;BME280;65652;53.132;18.026;2022-12-18T07:44:09;103200.98;;;-5.75;80.04
76728;BME280;65652;53.132;18.026;2022-12-18T07:46:36;103200.61;;;-5.76;79.87
76728;BME280;65652;53.132;18.026;2022-12-18T07:49:02;103206.86;;;-5.74;80.13
76728;BME280;65652;53.132;18.026;2022-12-18T07:51:28;103203.38;;;-5.76;80.23
76728;BME280;65652;53.132;18.026;2022-12-18T07:53:55;103205.08;;;-5.77;80.06
76728;BME280;65652;53.132;18.026;2022-12-18T07:56:22;103206.09;;;-5.79;80.16
76728;BME280;65652;53.132;18.026;2022-12-18T07:58:48;103197.45;;;-5.82;79.92
76728;BME280;65652;53.132;18.026;2022-12-18T08:01:14;103201.70;;;-5.84;80.07
76728;BME280;65652;53.132;18.026;2022-12-18T08:03:41;103205.83;;;-5.84;80.28
76728;BME280;65652;53.132;18.026;2022-12-18T08:06:08;103207.89;;;-5.85;80.14
76728;BME280;65652;53.132;18.026;2022-12-18T08:08:36;103216.56;;;-5.79;80.14
76728;BME280;65652;53.132;18.026;2022-12-18T08:11:03;103225.27;;;-5.74;79.98
76728;BME280;65652;53.132;18.026;2022-12-18T08:13:29;103225.35;;;-5.70;79.88
76728;BME280;65652;53.132;18.026;2022-12-18T08:16:00;103228.48;;;-5.68;80.13
76728;BME280;65652;53.132;18.026;2022-12-18T08:18:28;103229.06;;;-5.65;79.90
76728;BME280;65652;53.132;18.026;2022-12-18T08:20:55;103232.52;;;-5.64;80.04
76728;BME280;65652;53.132;18.026;2022-12-18T08:23:21;103235.30;;;-5.63;80.27
76728;BME280;65652;53.132;18.026;2022-12-18T08:25:48;103236.37;;;-5.70;79.92
76728;BME280;65652;53.132;18.026;2022-12-18T08:28:15;103238.86;;;-5.74;79.90
76728;BME280;65652;53.132;18.026;2022-12-18T08:30:41;103235.58;;;-5.75;80.14
76728;BME280;65652;53.132;18.026;2022-12-18T08:33:08;103240.72;;;-5.76;80.25
76728;BME280;65652;53.132;18.026;2022-12-18T08:35:36;103244.31;;;-5.77;80.19
76728;BME280;65652;53.132;18.026;2022-12-18T08:38:03;103257.91;;;-5.77;80.22
76728;BME280;65652;53.132;18.026;2022-12-18T08:40:29;103266.48;;;-5.78;80.04
76728;BME280;65652;53.132;18.026;2022-12-18T08:42:56;103271.80;;;-5.78;79.92
76728;BME280;65652;53.132;18.026;2022-12-18T08:45:40;103274.04;;;-5.78;80.03
76728;BME280;65652;53.132;18.026;2022-12-18T08:48:06;103275.64;;;-5.76;79.74
76728;BME280;65652;53.132;18.026;2022-12-18T08:50:32;103282.41;;;-5.73;80.18
76728;BME280;65652;53.132;18.026;2022-12-18T08:52:58;103278.50;;;-5.70;79.99
76728;BME280;65652;53.132;18.026;2022-12-18T08:55:24;103272.02;;;-5.68;80.16
76728;BME280;65652;53.132;18.026;2022-12-18T08:57:51;103274.14;;;-5.65;80.14
76728;BME280;65652;53.132;18.026;2022-12-18T09:00:17;103274.02;;;-5.63;80.16
76728;BME280;65652;53.132;18.026;2022-12-18T09:02:43;103267.69;;;-5.62;80.25
76728;BME280;65652;53.132;18.026;2022-12-18T09:05:09;103257.70;;;-5.62;80.07
76728;BME280;65652;53.132;18.026;2022-12-18T09:07:38;103256.90;;;-5.58;79.89
76728;BME280;65652;53.132;18.026;2022-12-18T09:10:05;103260.39;;;-5.57;80.27
76728;BME280;65652;53.132;18.026;2022-12-18T09:12:31;103265.14;;;-5.60;79.85
76728;BME280;65652;53.132;18.026;2022-12-18T09:14:57;103262.46;;;-5.65;80.05
76728;BME280;65652;53.132;18.026;2022-12-18T09:17:24;103255.03;;;-5.66;79.95
76728;BME280;65652;53.132;18.026;2022-12-18T09:19:50;103253.71;;;-5.63;80.16
76728;BME280;65652;53.132;18.026;2022-12-18T09:22:16;103249.17;;;-5.58;79.98
76728;BME280;65652;53.132;18.026;2022-12-18T09:24:43;103247.17;;;-5.55;79.87
76728;BME280;65652;53.132;18.026;2022-12-18T09:27:09;103242.44;;;-5.51;79.83
76728;BME280;65652;53.132;18.026;2022-12-18T09:29:35;103241.35;;;-5.44;79.90
76728;BME280;65652;53.132;18.026;2022-12-18T09:32:02;103239.52;;;-5.41;79.96
76728;BME280;65652;53.132;18.026;2022-12-18T09:34:28;103238.44;;;-5.44;79.26
76728;BME280;65652;53.132;18.026;2022-12-18T09:36:55;103237.90;;;-5.45;79.55
76728;BME280;65652;53.132;18.026;2022-12-18T09:39:21;103235.30;;;-5.46;79.52
76728;BME280;65652;53.132;18.026;2022-12-18T09:41:52;103242.69;;;-5.47;79.64
76728;BME280;65652;53.132;18.026;2022-12-18T09:44:42;103248.98;;;-5.50;79.29
76728;BME280;65652;53.132;18.026;2022-12-18T09:49:44;103255.87;;;-5.59;79.36
76728;BME280;65652;53.132;18.026;2022-12-18T09:52:19;103251.63;;;-5.55;79.50
76728;BME280;65652;53.132;18.026;2022-12-18T09:54:55;103247.65;;;-5.48;79.57
76728;BME280;65652;53.132;18.026;2022-12-18T09:57:24;103251.89;;;-5.43;79.24
76728;BME280;65652;53.132;18.026;2022-12-18T09:59:59;103252.46;;;-5.40;79.04
76728;BME280;65652;53.132;18.026;2022-12-18T10:02:40;103245.65;;;-5.44;78.73
76728;BME280;65652;53.132;18.026;2022-12-18T10:07:43;103234.44;;;-5.46;78.91
76728;BME280;65652;53.132;18.026;2022-12-18T10:10:23;103237.51;;;-5.47;79.14
76728;BME280;65652;53.132;18.026;2022-12-18T10:13:15;103237.34;;;-5.47;78.97
76728;BME280;65652;53.132;18.026;2022-12-18T10:16:08;103248.90;;;-5.46;79.10
76728;BME280;65652;53.132;18.026;2022-12-18T10:26:46;103258.67;;;-4.92;79.71
76728;BME280;65652;53.132;18.026;2022-12-18T10:29:14;103259.36;;;-4.92;79.19
76728;BME280;65652;53.132;18.026;2022-12-18T10:31:41;103265.13;;;-4.88;79.25
76728;BME280;65652;53.132;18.026;2022-12-18T10:34:11;103266.63;;;-4.81;78.94
76728;BME280;65652;53.132;18.026;2022-12-18T10:36:38;103266.34;;;-4.77;78.70
76728;BME280;65652;53.132;18.026;2022-12-18T10:39:19;103267.76;;;-4.76;78.65
76728;BME280;65652;53.132;18.026;2022-12-18T10:41:45;103269.86;;;-4.74;78.69
76728;BME280;65652;53.132;18.026;2022-12-18T10:44:22;103264.05;;;-4.71;78.64
76728;BME280;65652;53.132;18.026;2022-12-18T10:46:53;103260.41;;;-4.72;78.53
76728;BME280;65652;53.132;18.026;2022-12-18T10:49:26;103261.39;;;-4.75;78.50
76728;BME280;65652;53.132;18.026;2022-12-18T10:54:48;103265.66;;;-4.78;78.26
76728;BME280;65652;53.132;18.026;2022-12-18T10:57:36;103273.84;;;-4.82;78.55
76728;BME280;65652;53.132;18.026;2022-12-18T11:00:23;103278.87;;;-4.91;78.25
76728;BME280;65652;53.132;18.026;2022-12-18T11:02:51;103283.16;;;-4.91;78.23
76728;BME280;65652;53.132;18.026;2022-12-18T11:05:25;103285.89;;;-4.93;78.08
76728;BME280;65652;53.132;18.026;2022-12-18T11:07:53;103290.03;;;-4.92;78.17
76728;BME280;65652;53.132;18.026;2022-12-18T11:10:23;103289.26;;;-4.87;78.73
76728;BME280;65652;53.132;18.026;2022-12-18T11:12:51;103287.30;;;-4.81;78.05
76728;BME280;65652;53.132;18.026;2022-12-18T11:15:27;103290.17;;;-4.74;77.96
76728;BME280;65652;53.132;18.026;2022-12-18T11:17:55;103292.54;;;-4.67;78.10
76728;BME280;65652;53.132;18.026;2022-12-18T11:20:33;103291.37;;;-4.66;77.70
76728;BME280;65652;53.132;18.026;2022-12-18T11:23:05;103289.98;;;-4.66;77.96
76728;BME280;65652;53.132;18.026;2022-12-18T11:25:38;103291.73;;;-4.64;77.66
76728;BME280;65652;53.132;18.026;2022-12-18T11:28:08;103288.13;;;-4.63;77.74
76728;BME280;65652;53.132;18.026;2022-12-18T11:33:46;103275.81;;;-4.58;77.71
76728;BME280;65652;53.132;18.026;2022-12-18T11:36:14;103271.33;;;-4.58;77.28
76728;BME280;65652;53.132;18.026;2022-12-18T11:38:42;103266.27;;;-4.62;77.62
76728;BME280;65652;53.132;18.026;2022-12-18T11:41:37;103268.08;;;-4.66;77.04
76728;BME280;65652;53.132;18.026;2022-12-18T11:47:41;103270.48;;;-4.67;77.48
76728;BME280;65652;53.132;18.026;2022-12-18T11:50:17;103272.00;;;-4.69;77.91
76728;BME280;65652;53.132;18.026;2022-12-18T11:52:46;103270.41;;;-4.72;77.71
76728;BME280;65652;53.132;18.026;2022-12-18T11:55:19;103271.98;;;-4.70;77.49
76728;BME280;65652;53.132;18.026;2022-12-18T12:00:29;103290.55;;;-4.63;77.77
76728;BME280;65652;53.132;18.026;2022-12-18T12:08:56;103291.45;;;-4.61;77.62
76728;BME280;65652;53.132;18.026;2022-12-18T12:20:18;103301.91;;;-4.83;77.48
76728;BME280;65652;53.132;18.026;2022-12-18T12:23:06;103304.33;;;-4.93;77.42
76728;BME280;65652;53.132;18.026;2022-12-18T12:25:45;103308.02;;;-4.98;77.67
76728;BME280;65652;53.132;18.026;2022-12-18T12:31:13;103314.41;;;-5.05;77.66
76728;BME280;65652;53.132;18.026;2022-12-18T12:39:09;103335.48;;;-5.11;77.73
76728;BME280;65652;53.132;18.026;2022-12-18T12:41:38;103339.60;;;-5.12;77.89
76728;BME280;65652;53.132;18.026;2022-12-18T12:44:27;103345.13;;;-5.12;77.51
76728;BME280;65652;53.132;18.026;2022-12-18T12:46:59;103346.55;;;-5.09;78.14
76728;BME280;65652;53.132;18.026;2022-12-18T12:49:29;103350.10;;;-5.04;77.67
76728;BME280;65652;53.132;18.026;2022-12-18T12:52:07;103351.55;;;-5.09;77.89
76728;BME280;65652;53.132;18.026;2022-12-18T12:54:37;103355.92;;;-5.14;77.40
76728;BME280;65652;53.132;18.026;2022-12-18T12:57:11;103356.98;;;-5.14;77.93
76728;BME280;65652;53.132;18.026;2022-12-18T12:59:57;103355.50;;;-5.18;77.52
76728;BME280;65652;53.132;18.026;2022-12-18T13:02:52;103354.56;;;-5.22;78.22
76728;BME280;65652;53.132;18.026;2022-12-18T13:05:30;103362.80;;;-5.31;77.98
76728;BME280;65652;53.132;18.026;2022-12-18T13:08:02;103360.99;;;-5.35;78.51
76728;BME280;65652;53.132;18.026;2022-12-18T13:10:34;103362.30;;;-5.39;78.02
76728;BME280;65652;53.132;18.026;2022-12-18T13:13:10;103362.76;;;-5.42;77.90
76728;BME280;65652;53.132;18.026;2022-12-18T13:20:50;103349.93;;;-5.46;78.53
76728;BME280;65652;53.132;18.026;2022-12-18T13:23:29;103354.63;;;-5.43;78.19
76728;BME280;65652;53.132;18.026;2022-12-18T13:28:53;103345.39;;;-5.41;78.24
76728;BME280;65652;53.132;18.026;2022-12-18T13:34:27;103345.54;;;-5.34;78.16
76728;BME280;65652;53.132;18.026;2022-12-18T13:48:28;103361.80;;;-5.47;78.25
76728;BME280;65652;53.132;18.026;2022-12-18T13:50:59;103356.19;;;-5.51;78.04
76728;BME280;65652;53.132;18.026;2022-12-18T13:53:29;103350.02;;;-5.58;78.25
76728;BME280;65652;53.132;18.026;2022-12-18T13:55:57;103348.19;;;-5.62;78.73
76728;BME280;65652;53.132;18.026;2022-12-18T13:58:23;103345.92;;;-5.64;78.44
76728;BME280;65652;53.132;18.026;2022-12-18T14:00:49;103348.89;;;-5.62;78.35
76728;BME280;65652;53.132;18.026;2022-12-18T14:03:22;103350.10;;;-5.62;78.45
76728;BME280;65652;53.132;18.026;2022-12-18T14:06:01;103348.76;;;-5.60;78.78
76728;BME280;65652;53.132;18.026;2022-12-18T14:08:40;103350.17;;;-5.58;78.93
76728;BME280;65652;53.132;18.026;2022-12-18T14:11:17;103352.40;;;-5.58;78.64
76728;BME280;65652;53.132;18.026;2022-12-18T14:13:46;103355.02;;;-5.57;78.57
76728;BME280;65652;53.132;18.026;2022-12-18T14:16:14;103351.48;;;-5.54;78.90
76728;BME280;65652;53.132;18.026;2022-12-18T14:18:45;103361.48;;;-5.45;79.04
76728;BME280;65652;53.132;18.026;2022-12-18T14:21:38;103367.67;;;-5.37;78.60
76728;BME280;65652;53.132;18.026;2022-12-18T14:26:35;103365.67;;;-5.26;78.83
76728;BME280;65652;53.132;18.026;2022-12-18T14:29:19;103366.77;;;-5.23;78.68
76728;BME280;65652;53.132;18.026;2022-12-18T14:31:45;103371.63;;;-5.21;78.49
76728;BME280;65652;53.132;18.026;2022-12-18T14:34:16;103369.91;;;-5.21;78.18
76728;BME280;65652;53.132;18.026;2022-12-18T14:36:52;103372.26;;;-5.24;78.31
76728;BME280;65652;53.132;18.026;2022-12-18T14:39:18;103371.65;;;-5.28;78.30
76728;BME280;65652;53.132;18.026;2022-12-18T14:41:45;103369.69;;;-5.31;77.82